Terminal Aerodrome Forecast
Issued by NWS

Home | Current Version | Previous Version | Text Only | Print | Product List | Glossary On
Versions: 1 2 3 4 5 6 7 8 9 10 11 12 13 14 15 16 17 18 19 20 21 22 23 24 25 26 27 28
000
FTUS45 KPSR 291700
TAFPHX
TAF
KPHX 291721Z 2918/3018 VRB05KT P6SM SCT140 BKN160 OVC200
     FM292200 VRB05KT P6SM SCT070 BKN140
     FM300200 VRB04KT P6SM VCSH SCT040 OVC080
      TEMPO 3003/3006 -SHRA SCT040 OVC060
     FM300600 VRB04KT P6SM -RA FEW030 OVC040
     FM300800 10007KT P6SM -RA SCT025 OVC035
      TEMPO 3011/3015 5SM RA BR FEW015 BKN025 OVC030=

USA.gov is the U.S. government's official web portal to all federal, state and local government web resources and services.